sensor_id;sensor_type;location;lat;lon;timestamp;temperature;humidity
39033;DHT22;24794;51.982;5.878;2022-10-16T00:00:33;13.60;99.90
39033;DHT22;24794;51.982;5.878;2022-10-16T00:01:34;13.60;99.90
39033;DHT22;24794;51.982;5.878;2022-10-16T00:02:35;13.60;99.90
39033;DHT22;24794;51.982;5.878;2022-10-16T00:03:35;13.60;99.90
39033;DHT22;24794;51.982;5.878;2022-10-16T00:04:36;13.60;99.90
39033;DHT22;24794;51.982;5.878;2022-10-16T00:05:43;13.60;99.90
39033;DHT22;24794;51.982;5.878;2022-10-16T00:06:44;13.60;99.90
39033;DHT22;24794;51.982;5.878;2022-10-16T00:07:45;13.60;99.90
39033;DHT22;24794;51.982;5.878;2022-10-16T00:08:46;13.60;99.90
39033;DHT22;24794;51.982;5.878;2022-10-16T00:09:46;13.60;99.90
39033;DHT22;24794;51.982;5.878;2022-10-16T00:10:47;13.70;99.90
39033;DHT22;24794;51.982;5.878;2022-10-16T00:11:47;13.60;99.90
39033;DHT22;24794;51.982;5.878;2022-10-16T00:12:48;13.70;99.90
39033;DHT22;24794;51.982;5.878;2022-10-16T00:13:51;13.70;99.90
39033;DHT22;24794;51.982;5.878;2022-10-16T00:14:52;13.70;99.90
39033;DHT22;24794;51.982;5.878;2022-10-16T00:15:55;13.70;99.90
39033;DHT22;24794;51.982;5.878;2022-10-16T00:16:56;13.70;99.90
39033;DHT22;24794;51.982;5.878;2022-10-16T00:17:56;13.70;99.90
39033;DHT22;24794;51.982;5.878;2022-10-16T00:18:57;13.70;99.90
39033;DHT22;24794;51.982;5.878;2022-10-16T00:19:58;13.70;99.90
39033;DHT22;24794;51.982;5.878;2022-10-16T00:21:03;13.70;99.90
39033;DHT22;24794;51.982;5.878;2022-10-16T00:22:04;13.70;99.90
39033;DHT22;24794;51.982;5.878;2022-10-16T00:23:05;13.60;99.90
39033;DHT22;24794;51.982;5.878;2022-10-16T00:24:08;13.70;99.90
39033;DHT22;24794;51.982;5.878;2022-10-16T00:25:09;13.70;99.90
39033;DHT22;24794;51.982;5.878;2022-10-16T00:26:13;13.70;99.90
39033;DHT22;24794;51.982;5.878;2022-10-16T00:27:13;13.70;99.90
39033;DHT22;24794;51.982;5.878;2022-10-16T00:28:14;13.70;99.90
39033;DHT22;24794;51.982;5.878;2022-10-16T00:29:15;13.70;99.90
39033;DHT22;24794;51.982;5.878;2022-10-16T00:30:15;13.70;99.90
39033;DHT22;24794;51.982;5.878;2022-10-16T00:31:18;13.70;99.90
39033;DHT22;24794;51.982;5.878;2022-10-16T00:32:20;13.70;99.90
39033;DHT22;24794;51.982;5.878;2022-10-16T00:33:20;13.70;99.90
39033;DHT22;24794;51.982;5.878;2022-10-16T00:34:21;13.70;99.90
39033;DHT22;24794;51.982;5.878;2022-10-16T00:35:22;13.80;99.90
39033;DHT22;24794;51.982;5.878;2022-10-16T00:36:24;13.80;99.90
39033;DHT22;24794;51.982;5.878;2022-10-16T00:37:25;13.70;99.90
39033;DHT22;24794;51.982;5.878;2022-10-16T00:38:26;13.70;99.90
39033;DHT22;24794;51.982;5.878;2022-10-16T00:39:27;13.70;99.90
39033;DHT22;24794;51.982;5.878;2022-10-16T00:40:27;13.70;99.90
39033;DHT22;24794;51.982;5.878;2022-10-16T00:41:29;13.70;99.90
39033;DHT22;24794;51.982;5.878;2022-10-16T00:42:30;13.70;99.90
39033;DHT22;24794;51.982;5.878;2022-10-16T00:43:55;13.70;99.90
39033;DHT22;24794;51.982;5.878;2022-10-16T00:44:57;13.70;99.90
39033;DHT22;24794;51.982;5.878;2022-10-16T00:45:59;13.70;99.90
39033;DHT22;24794;51.982;5.878;2022-10-16T00:47:00;13.70;99.90
39033;DHT22;24794;51.982;5.878;2022-10-16T00:48:01;13.70;99.90
39033;DHT22;24794;51.982;5.878;2022-10-16T00:49:14;13.70;99.90
39033;DHT22;24794;51.982;5.878;2022-10-16T00:50:29;13.70;99.90
39033;DHT22;24794;51.982;5.878;2022-10-16T00:51:36;13.80;99.90
39033;DHT22;24794;51.982;5.878;2022-10-16T00:52:37;13.80;99.90
39033;DHT22;24794;51.982;5.878;2022-10-16T00:53:40;13.80;99.90
39033;DHT22;24794;51.982;5.878;2022-10-16T00:54:40;13.80;99.90
39033;DHT22;24794;51.982;5.878;2022-10-16T00:55:41;13.70;99.90
39033;DHT22;24794;51.982;5.878;2022-10-16T00:56:43;13.70;99.90
39033;DHT22;24794;51.982;5.878;2022-10-16T00:57:45;13.80;99.90
39033;DHT22;24794;51.982;5.878;2022-10-16T00:58:46;13.70;99.90
39033;DHT22;24794;51.982;5.878;2022-10-16T00:59:47;13.80;99.90
39033;DHT22;24794;51.982;5.878;2022-10-16T01:00:47;13.70;99.90
39033;DHT22;24794;51.982;5.878;2022-10-16T01:01:49;13.70;99.90
39033;DHT22;24794;51.982;5.878;2022-10-16T01:02:58;13.80;99.90
39033;DHT22;24794;51.982;5.878;2022-10-16T01:03:58;13.70;99.90
39033;DHT22;24794;51.982;5.878;2022-10-16T01:04:59;13.70;99.90
39033;DHT22;24794;51.982;5.878;2022-10-16T01:07:38;13.70;99.90
39033;DHT22;24794;51.982;5.878;2022-10-16T01:08:52;13.70;99.90
39033;DHT22;24794;51.982;5.878;2022-10-16T01:09:57;13.70;99.90
39033;DHT22;24794;51.982;5.878;2022-10-16T01:11:12;13.70;99.90
39033;DHT22;24794;51.982;5.878;2022-10-16T01:12:40;13.70;99.90
39033;DHT22;24794;51.982;5.878;2022-10-16T01:13:42;13.70;99.90
39033;DHT22;24794;51.982;5.878;2022-10-16T01:14:59;13.70;99.90
39033;DHT22;24794;51.982;5.878;2022-10-16T01:17:17;13.70;99.90
39033;DHT22;24794;51.982;5.878;2022-10-16T01:19:44;13.70;99.90
39033;DHT22;24794;51.982;5.878;2022-10-16T01:21:19;13.70;99.90
39033;DHT22;24794;51.982;5.878;2022-10-16T01:22:25;13.70;99.90
39033;DHT22;24794;51.982;5.878;2022-10-16T01:24:50;13.70;99.90
39033;DHT22;24794;51.982;5.878;2022-10-16T01:27:28;13.70;99.90
39033;DHT22;24794;51.982;5.878;2022-10-16T01:29:12;13.70;99.90
39033;DHT22;24794;51.982;5.878;2022-10-16T01:30:10;13.70;99.90
39033;DHT22;24794;51.982;5.878;2022-10-16T01:31:18;13.70;99.90
39033;DHT22;24794;51.982;5.878;2022-10-16T01:32:36;13.70;99.90
39033;DHT22;24794;51.982;5.878;2022-10-16T01:33:47;13.70;99.90
39033;DHT22;24794;51.982;5.878;2022-10-16T01:34:53;13.70;99.90
39033;DHT22;24794;51.982;5.878;2022-10-16T01:36:00;13.70;99.90
39033;DHT22;24794;51.982;5.878;2022-10-16T01:37:07;13.70;99.90
39033;DHT22;24794;51.982;5.878;2022-10-16T01:38:17;13.70;99.90
39033;DHT22;24794;51.982;5.878;2022-10-16T01:39:21;13.70;99.90
39033;DHT22;24794;51.982;5.878;2022-10-16T01:40:25;13.70;99.90
39033;DHT22;24794;51.982;5.878;2022-10-16T01:41:36;13.70;99.90
39033;DHT22;24794;51.982;5.878;2022-10-16T01:43:07;13.70;99.90
39033;DHT22;24794;51.982;5.878;2022-10-16T01:44:16;13.70;99.90
39033;DHT22;24794;51.982;5.878;2022-10-16T01:45:19;13.70;99.90
39033;DHT22;24794;51.982;5.878;2022-10-16T01:46:21;13.60;99.90
39033;DHT22;24794;51.982;5.878;2022-10-16T01:47:24;13.60;99.90
39033;DHT22;24794;51.982;5.878;2022-10-16T01:48:25;13.60;99.90
39033;DHT22;24794;51.982;5.878;2022-10-16T01:49:29;13.60;99.90
39033;DHT22;24794;51.982;5.878;2022-10-16T01:50:34;13.60;99.90
39033;DHT22;24794;51.982;5.878;2022-10-16T01:51:37;13.60;99.90
39033;DHT22;24794;51.982;5.878;2022-10-16T01:52:41;13.60;99.90
39033;DHT22;24794;51.982;5.878;2022-10-16T01:53:46;13.60;99.90
39033;DHT22;24794;51.982;5.878;2022-10-16T01:54:50;13.60;99.90
39033;DHT22;24794;51.982;5.878;2022-10-16T01:55:53;13.60;99.90
39033;DHT22;24794;51.982;5.878;2022-10-16T01:56:55;13.60;99.90
39033;DHT22;24794;51.982;5.878;2022-10-16T01:57:58;13.60;99.90
39033;DHT22;24794;51.982;5.878;2022-10-16T01:59:04;13.60;99.90
39033;DHT22;24794;51.982;5.878;2022-10-16T02:00:09;13.60;99.90
39033;DHT22;24794;51.982;5.878;2022-10-16T02:01:11;13.60;99.90
39033;DHT22;24794;51.982;5.878;2022-10-16T02:02:15;13.60;99.90
39033;DHT22;24794;51.982;5.878;2022-10-16T02:03:18;13.60;99.90
39033;DHT22;24794;51.982;5.878;2022-10-16T02:04:30;13.60;99.90
39033;DHT22;24794;51.982;5.878;2022-10-16T02:05:47;13.60;99.90
39033;DHT22;24794;51.982;5.878;2022-10-16T02:06:48;13.60;99.90
39033;DHT22;24794;51.982;5.878;2022-10-16T02:07:49;13.60;99.90
39033;DHT22;24794;51.982;5.878;2022-10-16T02:08:50;13.60;99.90
39033;DHT22;24794;51.982;5.878;2022-10-16T02:09:50;13.60;99.90
39033;DHT22;24794;51.982;5.878;2022-10-16T02:10:51;13.60;99.90
39033;DHT22;24794;51.982;5.878;2022-10-16T02:11:57;13.60;99.90
39033;DHT22;24794;51.982;5.878;2022-10-16T02:13:06;13.60;99.90
39033;DHT22;24794;51.982;5.878;2022-10-16T02:14:07;13.60;99.90
39033;DHT22;24794;51.982;5.878;2022-10-16T02:15:08;13.60;99.90
39033;DHT22;24794;51.982;5.878;2022-10-16T02:16:10;13.60;99.90
39033;DHT22;24794;51.982;5.878;2022-10-16T02:17:12;13.60;99.90
39033;DHT22;24794;51.982;5.878;2022-10-16T02:18:13;13.60;99.90
39033;DHT22;24794;51.982;5.878;2022-10-16T02:19:16;13.60;99.90
39033;DHT22;24794;51.982;5.878;2022-10-16T02:20:27;13.60;99.90
39033;DHT22;24794;51.982;5.878;2022-10-16T02:22:48;13.60;99.90
39033;DHT22;24794;51.982;5.878;2022-10-16T02:25:30;13.70;99.90
39033;DHT22;24794;51.982;5.878;2022-10-16T02:27:55;13.70;99.90
39033;DHT22;24794;51.982;5.878;2022-10-16T02:29:02;13.70;99.90
39033;DHT22;24794;51.982;5.878;2022-10-16T02:31:13;13.70;99.90
39033;DHT22;24794;51.982;5.878;2022-10-16T02:32:17;13.70;99.90
39033;DHT22;24794;51.982;5.878;2022-10-16T02:33:21;13.70;99.90
39033;DHT22;24794;51.982;5.878;2022-10-16T02:34:24;13.70;99.90
39033;DHT22;24794;51.982;5.878;2022-10-16T02:35:26;13.70;99.90
39033;DHT22;24794;51.982;5.878;2022-10-16T02:36:28;13.70;99.90
39033;DHT22;24794;51.982;5.878;2022-10-16T02:37:29;13.70;99.90
39033;DHT22;24794;51.982;5.878;2022-10-16T02:38:31;13.70;99.90
39033;DHT22;24794;51.982;5.878;2022-10-16T02:39:32;13.70;99.90
39033;DHT22;24794;51.982;5.878;2022-10-16T02:40:34;13.70;99.90
39033;DHT22;24794;51.982;5.878;2022-10-16T02:41:35;13.70;99.90
39033;DHT22;24794;51.982;5.878;2022-10-16T02:42:37;13.70;99.90
39033;DHT22;24794;51.982;5.878;2022-10-16T02:43:38;13.70;99.90
39033;DHT22;24794;51.982;5.878;2022-10-16T02:44:39;13.70;99.90
39033;DHT22;24794;51.982;5.878;2022-10-16T02:45:40;13.70;99.90
39033;DHT22;24794;51.982;5.878;2022-10-16T02:46:41;13.70;99.90
39033;DHT22;24794;51.982;5.878;2022-10-16T02:47:41;13.60;99.90
39033;DHT22;24794;51.982;5.878;2022-10-16T02:48:42;13.60;99.90
39033;DHT22;24794;51.982;5.878;2022-10-16T02:49:42;13.60;99.90
39033;DHT22;24794;51.982;5.878;2022-10-16T02:50:43;13.60;99.90
39033;DHT22;24794;51.982;5.878;2022-10-16T02:51:43;13.70;99.90
39033;DHT22;24794;51.982;5.878;2022-10-16T02:52:44;13.70;99.90
39033;DHT22;24794;51.982;5.878;2022-10-16T02:53:44;13.70;99.90
39033;DHT22;24794;51.982;5.878;2022-10-16T02:54:45;13.60;99.90
39033;DHT22;24794;51.982;5.878;2022-10-16T02:55:46;13.60;99.90
39033;DHT22;24794;51.982;5.878;2022-10-16T02:56:46;13.70;99.90
39033;DHT22;24794;51.982;5.878;2022-10-16T02:57:47;13.60;99.90
39033;DHT22;24794;51.982;5.878;2022-10-16T02:58:47;13.60;99.90
39033;DHT22;24794;51.982;5.878;2022-10-16T02:59:48;13.60;99.90
39033;DHT22;24794;51.982;5.878;2022-10-16T03:00:49;13.60;99.90
39033;DHT22;24794;51.982;5.878;2022-10-16T03:01:49;13.60;99.90
39033;DHT22;24794;51.982;5.878;2022-10-16T03:02:50;13.60;99.90
39033;DHT22;24794;51.982;5.878;2022-10-16T03:03:50;13.60;99.90
39033;DHT22;24794;51.982;5.878;2022-10-16T03:04:51;13.60;99.90
39033;DHT22;24794;51.982;5.878;2022-10-16T03:05:51;13.60;99.90
39033;DHT22;24794;51.982;5.878;2022-10-16T03:06:52;13.60;99.90
39033;DHT22;24794;51.982;5.878;2022-10-16T03:07:52;13.60;99.90
39033;DHT22;24794;51.982;5.878;2022-10-16T03:08:53;13.60;99.90
39033;DHT22;24794;51.982;5.878;2022-10-16T03:09:53;13.60;99.90
39033;DHT22;24794;51.982;5.878;2022-10-16T03:10:56;13.60;99.90
39033;DHT22;24794;51.982;5.878;2022-10-16T03:11:57;13.60;99.90
39033;DHT22;24794;51.982;5.878;2022-10-16T03:12:57;13.60;99.90
39033;DHT22;24794;51.982;5.878;2022-10-16T03:13:58;13.60;99.90
39033;DHT22;24794;51.982;5.878;2022-10-16T03:14:58;13.60;99.90
39033;DHT22;24794;51.982;5.878;2022-10-16T03:15:59;13.60;99.90
39033;DHT22;24794;51.982;5.878;2022-10-16T03:16:59;13.60;99.90
39033;DHT22;24794;51.982;5.878;2022-10-16T03:18:00;13.60;99.90
39033;DHT22;24794;51.982;5.878;2022-10-16T03:19:01;13.70;99.90
39033;DHT22;24794;51.982;5.878;2022-10-16T03:20:02;13.70;99.90
39033;DHT22;24794;51.982;5.878;2022-10-16T03:21:03;13.60;99.90
39033;DHT22;24794;51.982;5.878;2022-10-16T03:22:04;13.60;99.90
39033;DHT22;24794;51.982;5.878;2022-10-16T03:23:04;13.60;99.90
39033;DHT22;24794;51.982;5.878;2022-10-16T03:24:05;13.60;99.90
39033;DHT22;24794;51.982;5.878;2022-10-16T03:25:06;13.60;99.90
39033;DHT22;24794;51.982;5.878;2022-10-16T03:26:07;13.60;99.90
39033;DHT22;24794;51.982;5.878;2022-10-16T03:27:07;13.60;99.90
39033;DHT22;24794;51.982;5.878;2022-10-16T03:28:08;13.60;99.90
39033;DHT22;24794;51.982;5.878;2022-10-16T03:29:09;13.60;99.90
39033;DHT22;24794;51.982;5.878;2022-10-16T03:30:10;13.60;99.90
39033;DHT22;24794;51.982;5.878;2022-10-16T03:31:10;13.60;99.90
39033;DHT22;24794;51.982;5.878;2022-10-16T03:32:11;13.60;99.90
39033;DHT22;24794;51.982;5.878;2022-10-16T03:33:11;13.60;99.90
39033;DHT22;24794;51.982;5.878;2022-10-16T03:34:12;13.60;99.90
39033;DHT22;24794;51.982;5.878;2022-10-16T03:35:13;13.60;99.90
39033;DHT22;24794;51.982;5.878;2022-10-16T03:36:13;13.60;99.90
39033;DHT22;24794;51.982;5.878;2022-10-16T03:37:14;13.60;99.90
39033;DHT22;24794;51.982;5.878;2022-10-16T03:38:14;13.60;99.90
39033;DHT22;24794;51.982;5.878;2022-10-16T03:39:15;13.60;99.90
39033;DHT22;24794;51.982;5.878;2022-10-16T03:40:16;13.60;99.90
39033;DHT22;24794;51.982;5.878;2022-10-16T03:41:17;13.60;99.90
39033;DHT22;24794;51.982;5.878;2022-10-16T03:42:17;13.60;99.90
39033;DHT22;24794;51.982;5.878;2022-10-16T03:43:18;13.60;99.90
39033;DHT22;24794;51.982;5.878;2022-10-16T03:44:19;13.60;99.90
39033;DHT22;24794;51.982;5.878;2022-10-16T03:45:19;13.60;99.90
39033;DHT22;24794;51.982;5.878;2022-10-16T03:46:20;13.60;99.90
39033;DHT22;24794;51.982;5.878;2022-10-16T03:47:20;13.60;99.90
39033;DHT22;24794;51.982;5.878;2022-10-16T03:48:23;13.60;99.90
39033;DHT22;24794;51.982;5.878;2022-10-16T03:49:24;13.60;99.90
39033;DHT22;24794;51.982;5.878;2022-10-16T03:50:24;13.60;99.90
39033;DHT22;24794;51.982;5.878;2022-10-16T03:51:25;13.60;99.90
39033;DHT22;24794;51.982;5.878;2022-10-16T03:52:25;13.60;99.90
39033;DHT22;24794;51.982;5.878;2022-10-16T03:53:26;13.60;99.90
39033;DHT22;24794;51.982;5.878;2022-10-16T03:54:26;13.60;99.90
39033;DHT22;24794;51.982;5.878;2022-10-16T03:55:27;13.60;99.90
39033;DHT22;24794;51.982;5.878;2022-10-16T03:56:28;13.60;99.90
39033;DHT22;24794;51.982;5.878;2022-10-16T03:57:28;13.60;99.90
39033;DHT22;24794;51.982;5.878;2022-10-16T03:58:29;13.60;99.90
39033;DHT22;24794;51.982;5.878;2022-10-16T03:59:29;13.50;99.90
39033;DHT22;24794;51.982;5.878;2022-10-16T04:00:30;13.50;99.90
39033;DHT22;24794;51.982;5.878;2022-10-16T04:01:30;13.50;99.90
39033;DHT22;24794;51.982;5.878;2022-10-16T04:02:31;13.50;99.90
39033;DHT22;24794;51.982;5.878;2022-10-16T04:03:31;13.50;99.90
39033;DHT22;24794;51.982;5.878;2022-10-16T04:04:32;13.50;99.90
39033;DHT22;24794;51.982;5.878;2022-10-16T04:05:33;13.50;99.90
39033;DHT22;24794;51.982;5.878;2022-10-16T04:06:34;13.50;99.90
39033;DHT22;24794;51.982;5.878;2022-10-16T04:07:34;13.50;99.90
39033;DHT22;24794;51.982;5.878;2022-10-16T04:08:35;13.50;99.90
39033;DHT22;24794;51.982;5.878;2022-10-16T04:09:36;13.50;99.90
39033;DHT22;24794;51.982;5.878;2022-10-16T04:10:37;13.50;99.90
39033;DHT22;24794;51.982;5.878;2022-10-16T04:11:38;13.50;99.90
39033;DHT22;24794;51.982;5.878;2022-10-16T04:12:39;13.50;99.90
39033;DHT22;24794;51.982;5.878;2022-10-16T04:13:39;13.50;99.90
39033;DHT22;24794;51.982;5.878;2022-10-16T04:14:40;13.50;99.90
39033;DHT22;24794;51.982;5.878;2022-10-16T04:15:41;13.50;99.90
39033;DHT22;24794;51.982;5.878;2022-10-16T04:16:42;13.50;99.90
39033;DHT22;24794;51.982;5.878;2022-10-16T04:17:42;13.50;99.90
39033;DHT22;24794;51.982;5.878;2022-10-16T04:18:43;13.50;99.90
39033;DHT22;24794;51.982;5.878;2022-10-16T04:19:43;13.50;99.90
39033;DHT22;24794;51.982;5.878;2022-10-16T04:20:44;13.50;99.90
39033;DHT22;24794;51.982;5.878;2022-10-16T04:21:44;13.60;99.90
39033;DHT22;24794;51.982;5.878;2022-10-16T04:22:45;13.60;99.90
39033;DHT22;24794;51.982;5.878;2022-10-16T04:23:45;13.60;99.90
39033;DHT22;24794;51.982;5.878;2022-10-16T04:24:46;13.60;99.90
39033;DHT22;24794;51.982;5.878;2022-10-16T04:25:46;13.60;99.90
39033;DHT22;24794;51.982;5.878;2022-10-16T04:26:47;13.60;99.90
39033;DHT22;24794;51.982;5.878;2022-10-16T04:27:48;13.60;99.90
39033;DHT22;24794;51.982;5.878;2022-10-16T04:28:48;13.60;99.90
39033;DHT22;24794;51.982;5.878;2022-10-16T04:29:49;13.60;99.90
39033;DHT22;24794;51.982;5.878;2022-10-16T04:30:49;13.60;99.90
39033;DHT22;24794;51.982;5.878;2022-10-16T04:31:50;13.60;99.90
39033;DHT22;24794;51.982;5.878;2022-10-16T04:32:52;13.60;99.90
39033;DHT22;24794;51.982;5.878;2022-10-16T04:33:52;13.60;99.90
39033;DHT22;24794;51.982;5.878;2022-10-16T04:34:53;13.60;99.90
39033;DHT22;24794;51.982;5.878;2022-10-16T04:35:58;13.60;99.90
39033;DHT22;24794;51.982;5.878;2022-10-16T04:36:58;13.60;99.90
39033;DHT22;24794;51.982;5.878;2022-10-16T04:37:59;13.60;99.90
39033;DHT22;24794;51.982;5.878;2022-10-16T04:39:00;13.60;99.90
39033;DHT22;24794;51.982;5.878;2022-10-16T04:40:00;13.60;99.90
39033;DHT22;24794;51.982;5.878;2022-10-16T04:41:01;13.60;99.90
39033;DHT22;24794;51.982;5.878;2022-10-16T04:42:01;13.60;99.90
39033;DHT22;24794;51.982;5.878;2022-10-16T04:43:03;13.60;99.90
39033;DHT22;24794;51.982;5.878;2022-10-16T04:44:04;13.60;99.90
39033;DHT22;24794;51.982;5.878;2022-10-16T04:45:06;13.60;99.90
39033;DHT22;24794;51.982;5.878;2022-10-16T04:46:07;13.60;99.90
39033;DHT22;24794;51.982;5.878;2022-10-16T04:47:07;13.60;99.90
39033;DHT22;24794;51.982;5.878;2022-10-16T04:48:08;13.60;99.90
39033;DHT22;24794;51.982;5.878;2022-10-16T04:49:08;13.60;99.90
39033;DHT22;24794;51.982;5.878;2022-10-16T04:50:09;13.50;99.90
39033;DHT22;24794;51.982;5.878;2022-10-16T04:51:09;13.50;99.90
39033;DHT22;24794;51.982;5.878;2022-10-16T04:52:10;13.50;99.90
39033;DHT22;24794;51.982;5.878;2022-10-16T04:53:11;13.50;99.90
39033;DHT22;24794;51.982;5.878;2022-10-16T04:54:12;13.50;99.90
39033;DHT22;24794;51.982;5.878;2022-10-16T04:55:13;13.50;99.90
39033;DHT22;24794;51.982;5.878;2022-10-16T04:56:13;13.50;99.90
39033;DHT22;24794;51.982;5.878;2022-10-16T04:57:15;13.50;99.90
39033;DHT22;24794;51.982;5.878;2022-10-16T04:58:16;13.50;99.90
39033;DHT22;24794;51.982;5.878;2022-10-16T04:59:18;13.50;99.90
39033;DHT22;24794;51.982;5.878;2022-10-16T05:00:19;13.50;99.90
39033;DHT22;24794;51.982;5.878;2022-10-16T05:01:19;13.40;99.90
39033;DHT22;24794;51.982;5.878;2022-10-16T05:02:20;13.50;99.90
39033;DHT22;24794;51.982;5.878;2022-10-16T05:03:20;13.50;99.90
39033;DHT22;24794;51.982;5.878;2022-10-16T05:04:21;13.50;99.90
39033;DHT22;24794;51.982;5.878;2022-10-16T05:05:21;13.50;99.90
39033;DHT22;24794;51.982;5.878;2022-10-16T05:06:23;13.50;99.90
39033;DHT22;24794;51.982;5.878;2022-10-16T05:07:23;13.40;99.90
39033;DHT22;24794;51.982;5.878;2022-10-16T05:08:24;13.40;99.90
39033;DHT22;24794;51.982;5.878;2022-10-16T05:09:25;13.50;99.90
39033;DHT22;24794;51.982;5.878;2022-10-16T05:10:25;13.50;99.90
39033;DHT22;24794;51.982;5.878;2022-10-16T05:11:26;13.50;99.90
39033;DHT22;24794;51.982;5.878;2022-10-16T05:12:26;13.40;99.90
39033;DHT22;24794;51.982;5.878;2022-10-16T05:13:27;13.50;99.90
39033;DHT22;24794;51.982;5.878;2022-10-16T05:14:28;13.40;99.90
39033;DHT22;24794;51.982;5.878;2022-10-16T05:15:28;13.40;99.90
39033;DHT22;24794;51.982;5.878;2022-10-16T05:16:29;13.40;99.90
39033;DHT22;24794;51.982;5.878;2022-10-16T05:17:31;13.40;99.90
39033;DHT22;24794;51.982;5.878;2022-10-16T05:18:31;13.40;99.90
39033;DHT22;24794;51.982;5.878;2022-10-16T05:19:32;13.40;99.90
39033;DHT22;24794;51.982;5.878;2022-10-16T05:20:33;13.40;99.90
39033;DHT22;24794;51.982;5.878;2022-10-16T05:21:33;13.40;99.90
39033;DHT22;24794;51.982;5.878;2022-10-16T05:22:34;13.40;99.90
39033;DHT22;24794;51.982;5.878;2022-10-16T05:23:34;13.30;99.90
39033;DHT22;24794;51.982;5.878;2022-10-16T05:24:35;13.40;99.90
39033;DHT22;24794;51.982;5.878;2022-10-16T05:25:36;13.30;99.90
39033;DHT22;24794;51.982;5.878;2022-10-16T05:26:37;13.30;99.90
39033;DHT22;24794;51.982;5.878;2022-10-16T05:27:37;13.30;99.90
39033;DHT22;24794;51.982;5.878;2022-10-16T05:28:38;13.30;99.90
39033;DHT22;24794;51.982;5.878;2022-10-16T05:29:38;13.30;99.90
39033;DHT22;24794;51.982;5.878;2022-10-16T05:30:39;13.20;99.90
39033;DHT22;24794;51.982;5.878;2022-10-16T05:31:40;13.30;99.90
39033;DHT22;24794;51.982;5.878;2022-10-16T05:32:40;13.20;99.90
39033;DHT22;24794;51.982;5.878;2022-10-16T05:33:41;13.20;99.90
39033;DHT22;24794;51.982;5.878;2022-10-16T05:34:41;13.20;99.90
39033;DHT22;24794;51.982;5.878;2022-10-16T05:35:42;13.20;99.90
39033;DHT22;24794;51.982;5.878;2022-10-16T05:36:44;13.20;99.90
39033;DHT22;24794;51.982;5.878;2022-10-16T05:37:45;13.20;99.90
39033;DHT22;24794;51.982;5.878;2022-10-16T05:38:50;13.20;99.90
39033;DHT22;24794;51.982;5.878;2022-10-16T05:39:51;13.20;99.90
39033;DHT22;24794;51.982;5.878;2022-10-16T05:40:52;13.20;99.90
39033;DHT22;24794;51.982;5.878;2022-10-16T05:41:53;13.10;99.90
39033;DHT22;24794;51.982;5.878;2022-10-16T05:42:56;13.10;99.90
39033;DHT22;24794;51.982;5.878;2022-10-16T05:43:57;13.20;99.90
39033;DHT22;24794;51.982;5.878;2022-10-16T05:44:57;13.10;99.90
39033;DHT22;24794;51.982;5.878;2022-10-16T05:46:00;13.10;99.90
39033;DHT22;24794;51.982;5.878;2022-10-16T05:47:01;13.10;99.90
39033;DHT22;24794;51.982;5.878;2022-10-16T05:48:01;13.10;99.90
39033;DHT22;24794;51.982;5.878;2022-10-16T05:49:02;13.10;99.90
39033;DHT22;24794;51.982;5.878;2022-10-16T05:50:03;13.10;99.90
39033;DHT22;24794;51.982;5.878;2022-10-16T05:51:06;13.10;99.90
39033;DHT22;24794;51.982;5.878;2022-10-16T05:52:07;13.10;99.90
39033;DHT22;24794;51.982;5.878;2022-10-16T05:53:08;13.10;99.90
39033;DHT22;24794;51.982;5.878;2022-10-16T05:54:08;13.00;99.90
39033;DHT22;24794;51.982;5.878;2022-10-16T05:55:09;13.00;99.90
39033;DHT22;24794;51.982;5.878;2022-10-16T05:56:10;13.00;99.90
39033;DHT22;24794;51.982;5.878;2022-10-16T05:57:12;13.10;99.90
39033;DHT22;24794;51.982;5.878;2022-10-16T05:58:13;13.10;99.90
39033;DHT22;24794;51.982;5.878;2022-10-16T05:59:13;13.00;99.90
39033;DHT22;24794;51.982;5.878;2022-10-16T06:00:14;13.00;99.90
39033;DHT22;24794;51.982;5.878;2022-10-16T06:01:17;13.00;99.90
39033;DHT22;24794;51.982;5.878;2022-10-16T06:02:18;13.00;99.90
39033;DHT22;24794;51.982;5.878;2022-10-16T06:03:18;13.00;99.90
39033;DHT22;24794;51.982;5.878;2022-10-16T06:04:19;13.00;99.90
39033;DHT22;24794;51.982;5.878;2022-10-16T06:05:20;13.00;99.90
39033;DHT22;24794;51.982;5.878;2022-10-16T06:06:23;13.00;99.90
39033;DHT22;24794;51.982;5.878;2022-10-16T06:07:24;13.00;99.90
39033;DHT22;24794;51.982;5.878;2022-10-16T06:08:25;13.00;99.90
39033;DHT22;24794;51.982;5.878;2022-10-16T06:09:25;13.00;99.90
39033;DHT22;24794;51.982;5.878;2022-10-16T06:10:26;13.00;99.90
39033;DHT22;24794;51.982;5.878;2022-10-16T06:11:29;13.00;99.90
39033;DHT22;24794;51.982;5.878;2022-10-16T06:12:30;13.00;99.90
39033;DHT22;24794;51.982;5.878;2022-10-16T06:13:30;13.00;99.90
39033;DHT22;24794;51.982;5.878;2022-10-16T06:14:31;13.00;99.90
39033;DHT22;24794;51.982;5.878;2022-10-16T06:15:32;13.00;99.90
39033;DHT22;24794;51.982;5.878;2022-10-16T06:16:34;13.00;99.90
39033;DHT22;24794;51.982;5.878;2022-10-16T06:17:34;13.00;99.90
39033;DHT22;24794;51.982;5.878;2022-10-16T06:18:35;13.00;99.90
39033;DHT22;24794;51.982;5.878;2022-10-16T06:19:36;13.00;99.90
39033;DHT22;24794;51.982;5.878;2022-10-16T06:20:37;13.00;99.90
39033;DHT22;24794;51.982;5.878;2022-10-16T06:21:38;13.00;99.90
39033;DHT22;24794;51.982;5.878;2022-10-16T06:22:38;13.00;99.90
39033;DHT22;24794;51.982;5.878;2022-10-16T06:23:39;13.00;99.90
39033;DHT22;24794;51.982;5.878;2022-10-16T06:24:40;13.00;99.90
39033;DHT22;24794;51.982;5.878;2022-10-16T06:25:40;13.00;99.90
39033;DHT22;24794;51.982;5.878;2022-10-16T06:26:41;13.00;99.90
39033;DHT22;24794;51.982;5.878;2022-10-16T06:27:41;13.10;99.90
39033;DHT22;24794;51.982;5.878;2022-10-16T06:28:42;13.00;99.90
39033;DHT22;24794;51.982;5.878;2022-10-16T06:29:43;13.00;99.90
39033;DHT22;24794;51.982;5.878;2022-10-16T06:30:45;13.00;99.90
39033;DHT22;24794;51.982;5.878;2022-10-16T06:31:46;13.10;99.90
39033;DHT22;24794;51.982;5.878;2022-10-16T06:32:46;13.10;99.90
39033;DHT22;24794;51.982;5.878;2022-10-16T06:33:50;13.00;99.90
39033;DHT22;24794;51.982;5.878;2022-10-16T06:34:51;13.10;99.90
39033;DHT22;24794;51.982;5.878;2022-10-16T06:35:52;13.10;99.90
39033;DHT22;24794;51.982;5.878;2022-10-16T06:36:52;13.10;99.90
39033;DHT22;24794;51.982;5.878;2022-10-16T06:37:53;13.10;99.90
39033;DHT22;24794;51.982;5.878;2022-10-16T06:38:54;13.10;99.90
39033;DHT22;24794;51.982;5.878;2022-10-16T06:39:54;13.10;99.90
39033;DHT22;24794;51.982;5.878;2022-10-16T06:40:55;13.10;99.90
39033;DHT22;24794;51.982;5.878;2022-10-16T06:41:56;13.10;99.90
39033;DHT22;24794;51.982;5.878;2022-10-16T06:42:57;13.20;99.90
39033;DHT22;24794;51.982;5.878;2022-10-16T06:43:57;13.20;99.90
39033;DHT22;24794;51.982;5.878;2022-10-16T06:44:58;13.20;99.90